createdAt,value
2019-02-08T00:00:33.836Z,11.07
2019-02-08T00:03:02.638Z,11.83
2019-02-08T00:05:31.150Z,11.57
2019-02-08T00:07:59.638Z,12.00
2019-02-08T00:10:28.119Z,11.33
2019-02-08T00:12:57.105Z,12.73
2019-02-08T00:15:25.766Z,11.10
2019-02-08T00:17:54.260Z,11.50
2019-02-08T00:20:23.509Z,12.27
2019-02-08T00:22:51.956Z,12.40
2019-02-08T00:25:24.160Z,12.53
2019-02-08T00:27:52.707Z,12.87
2019-02-08T00:30:30.821Z,12.50
2019-02-08T00:32:59.386Z,11.67
2019-02-08T00:35:27.873Z,12.10
2019-02-08T00:37:56.535Z,12.63
2019-02-08T00:40:26.236Z,12.37
2019-02-08T00:42:56.599Z,12.40
2019-02-08T00:45:25.345Z,10.87
2019-02-08T00:47:53.804Z,12.77
2019-02-08T00:50:26.506Z,12.03
2019-02-08T00:52:55.620Z,13.03
2019-02-08T00:55:24.337Z,12.73
2019-02-08T00:57:52.813Z,13.63
2019-02-08T01:00:22.408Z,12.80
2019-02-08T01:02:52.743Z,12.57
2019-02-08T01:05:26.638Z,12.93
2019-02-08T01:07:55.845Z,12.73
2019-02-08T01:10:32.634Z,13.20
2019-02-08T01:13:02.231Z,13.93
2019-02-08T01:15:34.378Z,12.77
2019-02-08T01:18:02.854Z,13.67
2019-02-08T01:20:31.509Z,13.47
2019-02-08T01:23:00.080Z,13.17
2019-02-08T01:25:30.868Z,12.60
2019-02-08T01:27:59.485Z,13.57
2019-02-08T01:30:32.629Z,13.93
2019-02-08T01:33:01.534Z,13.53
2019-02-08T01:35:30.255Z,12.87
2019-02-08T01:38:00.578Z,12.53
2019-02-08T01:40:37.408Z,14.63
2019-02-08T01:43:08.328Z,12.97
2019-02-08T01:45:37.151Z,13.07
2019-02-08T01:48:07.880Z,12.17
2019-02-08T01:50:36.450Z,12.53
2019-02-08T01:53:06.844Z,12.80
2019-02-08T01:55:35.451Z,12.50
2019-02-08T01:58:04.345Z,13.00
2019-02-08T02:00:41.825Z,12.93
2019-02-08T02:03:11.022Z,13.37
2019-02-08T02:05:40.857Z,13.50
2019-02-08T02:08:09.648Z,13.13
2019-02-08T02:10:41.258Z,12.20
2019-02-08T02:13:10.876Z,13.73
2019-02-08T02:15:39.740Z,13.07
2019-02-08T02:18:08.751Z,11.47
2019-02-08T02:20:39.377Z,12.93
2019-02-08T02:23:08.880Z,12.50
2019-02-08T02:25:37.393Z,12.33
2019-02-08T02:28:06.691Z,12.93
2019-02-08T02:30:36.801Z,13.37
2019-02-08T02:33:08.126Z,11.57
2019-02-08T02:35:36.783Z,13.93
2019-02-08T02:38:06.799Z,12.87
2019-02-08T02:40:35.350Z,13.60
2019-02-08T02:43:04.580Z,13.00
2019-02-08T02:45:35.319Z,12.40
2019-02-08T02:48:04.777Z,11.90
2019-02-08T02:50:33.329Z,12.20
2019-02-08T02:53:01.821Z,12.77
2019-02-08T02:55:31.602Z,11.80
2019-02-08T02:58:00.065Z,13.17
2019-02-08T03:00:34.194Z,13.90
2019-02-08T03:03:02.766Z,11.93
2019-02-08T03:05:31.312Z,11.80
2019-02-08T03:07:59.807Z,12.10
2019-02-08T03:10:29.211Z,12.83
2019-02-08T03:12:57.714Z,11.97
2019-02-08T03:15:26.722Z,12.07
2019-02-08T03:17:55.224Z,11.63
2019-02-08T03:20:24.727Z,11.13
2019-02-08T03:22:53.669Z,11.33
2019-02-08T03:25:27.922Z,12.53
2019-02-08T03:27:56.849Z,11.67
2019-02-08T03:30:31.903Z,10.47
2019-02-08T03:33:00.417Z,12.23
2019-02-08T03:35:29.330Z,10.60
2019-02-08T03:37:57.822Z,12.73
2019-02-08T03:40:28.610Z,12.00
2019-02-08T03:42:58.549Z,11.77
2019-02-08T03:45:38.078Z,11.07
2019-02-08T03:48:07.308Z,11.87
2019-02-08T03:50:35.761Z,11.60
2019-02-08T03:53:05.298Z,11.37
2019-02-08T03:55:33.770Z,10.73
2019-02-08T03:58:02.253Z,10.10
2019-02-08T04:00:33.815Z,12.43
2019-02-08T04:03:02.380Z,11.90
2019-02-08T04:05:31.088Z,10.57
2019-02-08T04:07:59.653Z,11.00
2019-02-08T04:10:28.364Z,11.10
2019-02-08T04:12:56.858Z,11.80
2019-02-08T04:15:27.028Z,11.27
2019-02-08T04:17:55.527Z,11.53
2019-02-08T04:20:25.757Z,10.30
2019-02-08T04:22:55.285Z,11.10
2019-02-08T04:25:24.088Z,12.07
2019-02-08T04:27:52.927Z,11.70
2019-02-08T04:30:27.224Z,11.70
2019-02-08T04:32:56.447Z,11.77
2019-02-08T04:35:25.153Z,11.60
2019-02-08T04:37:53.715Z,11.27
2019-02-08T04:40:24.038Z,10.90
2019-02-08T04:42:52.597Z,11.23
2019-02-08T04:45:21.597Z,11.37
2019-02-08T04:47:50.250Z,11.27
2019-02-08T04:50:20.961Z,11.00
2019-02-08T04:52:49.522Z,11.27
2019-02-08T04:55:18.165Z,12.03
2019-02-08T04:57:46.659Z,11.47
2019-02-08T05:00:26.713Z,10.53
2019-02-08T05:02:55.203Z,10.43
2019-02-08T05:05:23.920Z,11.10
2019-02-08T05:07:52.485Z,11.10
2019-02-08T05:10:23.689Z,10.80
2019-02-08T05:12:52.358Z,10.70
2019-02-08T05:15:23.101Z,11.10
2019-02-08T05:17:51.919Z,10.20
2019-02-08T05:20:25.523Z,10.67
2019-02-08T05:22:54.450Z,10.50
2019-02-08T05:25:23.001Z,10.60
2019-02-08T05:27:52.602Z,9.97
2019-02-08T05:30:33.226Z,10.83
2019-02-08T05:33:02.099Z,9.70
2019-02-08T05:35:30.781Z,11.10
2019-02-08T05:37:59.753Z,10.40
2019-02-08T05:40:28.848Z,10.40
2019-02-08T05:42:57.343Z,9.93
2019-02-08T05:45:27.035Z,9.43
2019-02-08T05:47:55.548Z,10.67
2019-02-08T05:50:28.431Z,10.40
2019-02-08T05:52:56.994Z,9.23
2019-02-08T05:55:30.486Z,10.00
2019-02-08T05:57:59.041Z,9.73
2019-02-08T06:00:37.495Z,9.63
2019-02-08T06:03:06.890Z,10.07
2019-02-08T06:05:35.977Z,9.43
2019-02-08T06:08:05.207Z,8.67
2019-02-08T06:10:33.681Z,8.07
2019-02-08T06:13:02.247Z,8.90
2019-02-08T06:15:30.702Z,8.33
2019-02-08T06:17:59.182Z,9.27
2019-02-08T06:20:28.098Z,9.33
2019-02-08T06:22:56.787Z,8.73
2019-02-08T06:25:25.678Z,8.50
2019-02-08T06:27:54.331Z,8.93
2019-02-08T06:30:27.936Z,9.20
2019-02-08T06:32:56.681Z,10.40
2019-02-08T06:35:26.587Z,9.30
2019-02-08T06:37:55.252Z,9.20
2019-02-08T06:40:26.407Z,8.67
2019-02-08T06:42:55.218Z,9.53
2019-02-08T06:45:25.817Z,8.43
2019-02-08T06:47:54.850Z,9.73
2019-02-08T06:50:25.444Z,9.00
2019-02-08T06:52:54.466Z,9.23
2019-02-08T06:55:23.563Z,9.63
2019-02-08T06:58:10.381Z,8.83
2019-02-08T07:00:40.497Z,9.10
2019-02-08T07:03:27.023Z,9.67
2019-02-08T07:05:57.125Z,8.00
2019-02-08T07:08:27.277Z,8.63
2019-02-08T07:10:57.385Z,9.57
2019-02-08T07:13:36.463Z,7.97
2019-02-08T07:16:16.239Z,8.80
2019-02-08T07:18:51.819Z,8.17
2019-02-08T07:21:33.481Z,9.10
2019-02-08T07:26:59.969Z,8.17
2019-02-08T07:29:35.822Z,9.33
2019-02-08T07:32:24.753Z,8.53
2019-02-08T07:35:11.375Z,8.57
2019-02-08T07:37:57.302Z,9.37
2019-02-08T07:40:42.594Z,9.60
2019-02-08T07:43:13.528Z,8.30
2019-02-08T07:45:46.378Z,7.03
2019-02-08T07:48:22.813Z,7.80
2019-02-08T07:51:08.055Z,7.57
2019-02-08T07:53:38.150Z,7.53
2019-02-08T07:56:10.990Z,7.30
2019-02-08T07:58:43.535Z,7.10
2019-02-08T08:01:16.692Z,7.40
2019-02-08T08:04:03.251Z,7.17
2019-02-08T08:06:33.592Z,6.90
2019-02-08T08:09:04.261Z,6.50
2019-02-08T08:11:34.363Z,6.67
2019-02-08T08:14:20.900Z,6.57
2019-02-08T08:17:07.646Z,7.33
2019-02-08T08:19:50.407Z,6.40
2019-02-08T08:22:26.399Z,6.37
2019-02-08T08:25:14.511Z,5.47
2019-02-08T08:30:50.593Z,6.53
2019-02-08T08:33:28.083Z,6.20
2019-02-08T08:36:08.403Z,5.67
2019-02-08T08:38:42.896Z,5.90
2019-02-08T08:41:42.060Z,6.13
2019-02-08T08:44:39.421Z,6.80
2019-02-08T08:47:13.622Z,6.20
2019-02-08T08:49:45.156Z,6.90
2019-02-08T08:52:28.520Z,5.53
2019-02-08T08:55:05.618Z,5.43
2019-02-08T08:57:40.163Z,6.27
2019-02-08T09:00:29.327Z,5.57
2019-02-08T09:03:17.608Z,5.40
2019-02-08T09:06:08.592Z,5.40
2019-02-08T09:09:12.396Z,5.07
2019-02-08T09:11:55.792Z,5.27
2019-02-08T09:14:32.878Z,5.23
2019-02-08T09:17:31.936Z,3.90
2019-02-08T09:20:21.823Z,4.67
2019-02-08T09:23:08.212Z,4.27
2019-02-08T09:26:01.995Z,5.10
2019-02-08T09:28:45.736Z,4.57
2019-02-08T09:31:46.167Z,4.50
2019-02-08T09:34:32.212Z,5.00
2019-02-08T09:37:23.717Z,3.93
2019-02-08T09:40:00.836Z,4.07
2019-02-08T09:42:38.455Z,3.60
2019-02-08T09:45:12.683Z,3.90
2019-02-08T09:47:53.109Z,4.80
2019-02-08T09:50:30.425Z,4.27
2019-02-08T09:53:20.218Z,3.87
2019-02-08T09:56:10.231Z,4.43
2019-02-08T09:59:07.390Z,3.87
2019-02-08T10:01:47.718Z,4.33
2019-02-08T10:04:39.677Z,4.47
2019-02-08T10:07:32.400Z,4.50
2019-02-08T10:10:20.526Z,4.17
2019-02-08T10:13:13.204Z,3.77
2019-02-08T10:16:20.272Z,3.50
2019-02-08T10:19:17.355Z,4.70
2019-02-08T10:22:07.761Z,3.93
2019-02-08T10:25:13.906Z,4.00
2019-02-08T10:28:19.163Z,3.57
2019-02-08T10:31:16.128Z,3.80
2019-02-08T10:34:13.326Z,3.73
2019-02-08T10:37:18.298Z,3.50
2019-02-08T10:40:18.614Z,4.43
2019-02-08T10:42:50.138Z,4.00
2019-02-08T10:45:30.784Z,3.60
2019-02-08T10:48:11.369Z,4.50
2019-02-08T10:51:16.623Z,4.33
2019-02-08T10:54:22.757Z,4.57
2019-02-08T10:57:18.682Z,3.93
2019-02-08T10:59:53.038Z,4.00
2019-02-08T11:02:48.220Z,3.93
2019-02-08T11:05:46.593Z,3.90
2019-02-08T11:08:21.028Z,3.57
2019-02-08T11:11:23.060Z,3.90
2019-02-08T11:14:23.395Z,3.67
2019-02-08T11:16:57.579Z,3.03
2019-02-08T11:19:24.888Z,3.03
2019-02-08T11:21:53.627Z,3.80
2019-02-08T11:24:23.234Z,3.93
2019-02-08T11:26:51.892Z,4.50
2019-02-08T11:29:20.423Z,3.07
2019-02-08T11:31:49.191Z,3.37
2019-02-08T11:34:17.646Z,3.20
2019-02-08T11:36:46.198Z,3.50
2019-02-08T11:39:18.598Z,3.13
2019-02-08T11:41:48.032Z,3.37
2019-02-08T11:44:17.134Z,2.97
2019-02-08T11:46:45.689Z,2.93
2019-02-08T11:49:14.475Z,2.40
2019-02-08T11:51:43.026Z,3.00
2019-02-08T11:54:13.081Z,3.20
2019-02-08T11:56:41.629Z,3.17
2019-02-08T11:59:10.169Z,3.20
2019-02-08T12:01:40.414Z,4.00
2019-02-08T12:04:09.151Z,3.40
2019-02-08T12:06:37.707Z,3.33
2019-02-08T12:09:09.470Z,3.30
2019-02-08T12:11:37.950Z,3.23
2019-02-08T12:14:06.738Z,2.40
2019-02-08T12:16:35.244Z,2.87
2019-02-08T12:19:04.063Z,2.70
2019-02-08T12:21:32.542Z,4.00
2019-02-08T12:24:00.997Z,3.30
2019-02-08T12:26:29.477Z,3.03
2019-02-08T12:28:57.935Z,2.97
2019-02-08T12:31:26.418Z,2.90
2019-02-08T12:33:54.900Z,3.47
2019-02-08T12:36:23.480Z,2.97
2019-02-08T12:38:51.960Z,3.10
2019-02-08T12:41:20.396Z,2.87
2019-02-08T12:43:48.888Z,3.17
2019-02-08T12:46:17.362Z,2.97
2019-02-08T12:48:45.840Z,3.03
2019-02-08T12:51:14.300Z,2.90
2019-02-08T12:53:42.777Z,2.80
2019-02-08T12:56:11.233Z,2.77
2019-02-08T12:58:39.716Z,3.20
2019-02-08T13:01:08.193Z,2.73
2019-02-08T13:03:36.676Z,3.03
2019-02-08T13:06:05.567Z,3.07
2019-02-08T13:08:34.049Z,3.30
2019-02-08T13:11:02.492Z,3.13
2019-02-08T13:13:30.966Z,2.93
2019-02-08T13:15:59.428Z,2.90
2019-02-08T13:18:27.897Z,3.43
2019-02-08T13:20:56.359Z,3.20
2019-02-08T13:23:25.781Z,3.40
2019-02-08T13:25:54.240Z,2.93
2019-02-08T13:28:22.721Z,3.13
2019-02-08T13:30:51.176Z,3.37
2019-02-08T13:33:19.662Z,3.43
2019-02-08T13:35:48.121Z,3.47
2019-02-08T13:38:16.605Z,2.97
2019-02-08T13:40:45.302Z,3.37
2019-02-08T13:43:13.833Z,3.70
2019-02-08T13:45:42.355Z,3.40
2019-02-08T13:48:10.982Z,3.67
2019-02-08T13:50:39.441Z,3.37
2019-02-08T13:53:08.102Z,3.10
2019-02-08T13:55:36.582Z,3.27
2019-02-08T13:58:06.199Z,3.20
2019-02-08T14:00:39.645Z,3.00
2019-02-08T14:03:09.427Z,2.90
2019-02-08T14:05:38.062Z,2.90
2019-02-08T14:08:07.244Z,3.07
2019-02-08T14:10:35.714Z,2.97
2019-02-08T14:13:05.049Z,3.00
2019-02-08T14:15:34.579Z,3.53
2019-02-08T14:18:03.034Z,3.07
2019-02-08T14:20:31.590Z,3.07
2019-02-08T14:23:00.047Z,3.23
2019-02-08T14:25:28.605Z,3.10
2019-02-08T14:27:57.059Z,2.87
2019-02-08T14:30:28.584Z,2.77
2019-02-08T14:32:57.116Z,2.93
2019-02-08T14:35:25.949Z,2.70
2019-02-08T14:37:55.155Z,3.00
2019-02-08T14:40:24.978Z,2.80
2019-02-08T14:42:54.085Z,2.90
2019-02-08T14:45:22.634Z,3.00
2019-02-08T14:47:51.085Z,2.60
2019-02-08T14:50:22.170Z,2.40
2019-02-08T14:52:51.318Z,3.07
2019-02-08T14:55:20.341Z,2.87
2019-02-08T14:57:49.465Z,2.20
2019-02-08T15:00:20.992Z,1.87
2019-02-08T15:02:49.463Z,2.73
2019-02-08T15:05:22.305Z,2.33
2019-02-08T15:07:50.767Z,2.10
2019-02-08T15:10:30.300Z,2.67
2019-02-08T15:13:00.381Z,2.70
2019-02-08T15:15:29.021Z,2.80
2019-02-08T15:17:57.486Z,2.23
2019-02-08T15:20:28.735Z,2.77
2019-02-08T15:22:57.189Z,2.73
2019-02-08T15:25:25.754Z,2.63
2019-02-08T15:27:54.207Z,2.57
2019-02-08T15:30:31.566Z,2.40
2019-02-08T15:33:00.020Z,2.63
2019-02-08T15:35:30.341Z,2.37
2019-02-08T15:37:59.061Z,2.30
2019-02-08T15:40:39.369Z,2.43
2019-02-08T15:43:08.976Z,1.80
2019-02-08T15:45:37.991Z,2.43
2019-02-08T15:48:06.585Z,2.73
2019-02-08T15:50:35.065Z,2.30
2019-02-08T15:53:03.603Z,2.17
2019-02-08T15:55:35.176Z,2.37
2019-02-08T15:58:03.912Z,2.00
2019-02-08T16:00:32.561Z,1.90
2019-02-08T16:03:01.347Z,1.60
2019-02-08T16:05:31.581Z,2.03
2019-02-08T16:08:00.214Z,2.17
2019-02-08T16:10:28.950Z,1.97
2019-02-08T16:12:57.610Z,2.23
2019-02-08T16:15:28.510Z,2.43
2019-02-08T16:17:58.369Z,2.17
2019-02-08T16:20:30.972Z,2.03
2019-02-08T16:23:00.475Z,2.33
2019-02-08T16:25:30.868Z,2.30
2019-02-08T16:27:59.688Z,2.33
2019-02-08T16:30:37.213Z,2.43
2019-02-08T16:33:07.640Z,2.57
2019-02-08T16:35:36.095Z,2.67
2019-02-08T16:38:05.729Z,2.63
2019-02-08T16:40:34.732Z,2.73
2019-02-08T16:43:03.206Z,2.30
2019-02-08T16:45:36.887Z,2.80
2019-02-08T16:48:11.431Z,2.67
2019-02-08T16:50:40.768Z,2.23
2019-02-08T16:53:10.525Z,2.90
2019-02-08T16:55:39.850Z,3.00
2019-02-08T16:58:09.781Z,2.40
2019-02-08T17:00:39.681Z,2.37
2019-02-08T17:03:12.911Z,2.10
2019-02-08T17:05:42.223Z,2.60
2019-02-08T17:08:12.805Z,2.20
2019-02-08T17:10:41.542Z,2.37
2019-02-08T17:13:10.157Z,2.43
2019-02-08T17:15:38.802Z,2.07
2019-02-08T17:18:08.309Z,2.33
2019-02-08T17:20:45.414Z,2.20
2019-02-08T17:23:13.983Z,1.70
2019-02-08T17:25:42.621Z,1.80
2019-02-08T17:28:11.646Z,2.40
2019-02-08T17:30:40.404Z,2.27
2019-02-08T17:33:09.936Z,2.40
2019-02-08T17:35:38.830Z,2.30
2019-02-08T17:38:07.571Z,2.57
2019-02-08T17:40:49.749Z,2.40
2019-02-08T17:43:18.239Z,2.17
2019-02-08T17:45:46.702Z,2.33
2019-02-08T17:48:16.425Z,2.07
2019-02-08T17:50:44.893Z,2.50
2019-02-08T17:53:13.380Z,2.97
2019-02-08T17:55:41.866Z,2.73
2019-02-08T17:58:10.352Z,2.67
2019-02-08T18:00:43.041Z,2.70
2019-02-08T18:03:11.523Z,3.03
2019-02-08T18:05:40.049Z,2.57
2019-02-08T18:08:08.787Z,2.60
2019-02-08T18:10:37.307Z,2.93
2019-02-08T18:13:06.234Z,2.70
2019-02-08T18:15:34.756Z,2.50
2019-02-08T18:18:05.086Z,3.03
2019-02-08T18:20:51.648Z,3.53
2019-02-08T18:23:20.268Z,3.10
2019-02-08T18:25:48.731Z,3.20
2019-02-08T18:28:17.228Z,2.87
2019-02-08T18:30:45.696Z,2.73
2019-02-08T18:33:14.225Z,2.60
2019-02-08T18:35:42.661Z,3.47
2019-02-08T18:38:11.293Z,3.20
2019-02-08T18:40:39.828Z,3.60
2019-02-08T18:43:08.319Z,2.63
2019-02-08T18:45:37.723Z,2.73
2019-02-08T18:48:07.067Z,3.07
2019-02-08T18:50:37.963Z,2.70
2019-02-08T18:53:07.094Z,2.80
2019-02-08T18:55:35.610Z,2.67
2019-02-08T18:58:04.574Z,2.70
2019-02-08T19:00:39.965Z,3.53
2019-02-08T19:03:06.606Z,3.37
2019-02-08T19:05:35.303Z,3.27
2019-02-08T19:08:04.229Z,2.80
2019-02-08T19:10:32.710Z,2.70
2019-02-08T19:13:01.166Z,2.90
2019-02-08T19:15:30.122Z,2.63
2019-02-08T19:17:58.574Z,2.87
2019-02-08T19:20:28.992Z,2.80
2019-02-08T19:22:57.715Z,2.87
2019-02-08T19:25:34.457Z,3.43
2019-02-08T19:28:02.991Z,3.70
2019-02-08T19:30:34.409Z,3.27
2019-02-08T19:33:02.873Z,3.47
2019-02-08T19:35:31.413Z,2.77
2019-02-08T19:38:00.002Z,3.20
2019-02-08T19:40:30.730Z,2.83
2019-02-08T19:42:59.326Z,3.00
2019-02-08T19:45:28.042Z,3.17
2019-02-08T19:47:56.486Z,3.30
2019-02-08T19:50:27.548Z,2.97
2019-02-08T19:52:56.013Z,3.37
2019-02-08T19:55:24.939Z,3.43
2019-02-08T19:57:53.396Z,3.00
2019-02-08T20:00:33.644Z,3.20
2019-02-08T20:03:02.775Z,3.20
2019-02-08T20:05:31.309Z,3.47
2019-02-08T20:07:59.840Z,3.67
2019-02-08T20:10:30.676Z,3.40
2019-02-08T20:12:59.703Z,3.07
2019-02-08T20:15:28.731Z,2.80
2019-02-08T20:17:57.199Z,3.10
2019-02-08T20:20:25.762Z,3.23
2019-02-08T20:22:54.553Z,2.90
2019-02-08T20:25:28.379Z,3.00
2019-02-08T20:27:56.863Z,3.17
2019-02-08T20:30:27.182Z,3.43
2019-02-08T20:32:55.788Z,3.60
2019-02-08T20:35:25.999Z,2.90
2019-02-08T20:37:54.997Z,2.90
2019-02-08T20:40:25.728Z,2.83
2019-02-08T20:42:54.185Z,3.43
2019-02-08T20:45:27.956Z,3.20
2019-02-08T20:47:57.152Z,3.57
2019-02-08T20:50:25.976Z,3.43
2019-02-08T20:52:54.877Z,3.33
2019-02-08T20:55:24.198Z,3.67
2019-02-08T20:57:52.721Z,3.43
2019-02-08T21:00:36.115Z,2.70
2019-02-08T21:03:07.536Z,3.50
2019-02-08T21:05:36.146Z,3.37
2019-02-08T21:08:06.542Z,3.60
2019-02-08T21:10:35.770Z,3.80
2019-02-08T21:13:05.763Z,3.63
2019-02-08T21:15:34.579Z,3.43
2019-02-08T21:18:03.137Z,4.20
2019-02-08T21:20:31.612Z,3.80
2019-02-08T21:23:00.070Z,4.17
2019-02-08T21:25:31.235Z,3.70
2019-02-08T21:27:59.788Z,4.67
2019-02-08T21:30:28.441Z,4.30
2019-02-08T21:32:58.495Z,3.90
2019-02-08T21:35:27.282Z,4.20
2019-02-08T21:37:55.728Z,4.13
2019-02-08T21:40:26.837Z,4.17
2019-02-08T21:42:57.270Z,4.37
2019-02-08T21:45:31.294Z,4.10
2019-02-08T21:48:00.010Z,4.17
2019-02-08T21:50:29.063Z,4.53
2019-02-08T21:52:57.594Z,3.93
2019-02-08T21:55:27.811Z,4.60
2019-02-08T21:57:56.284Z,3.87
2019-02-08T22:00:30.286Z,4.40
2019-02-08T22:02:59.608Z,4.80
2019-02-08T22:05:36.483Z,4.20
2019-02-08T22:08:05.629Z,3.93
2019-02-08T22:10:34.111Z,4.63
2019-02-08T22:13:02.718Z,4.33
2019-02-08T22:15:42.749Z,5.17
2019-02-08T22:18:11.211Z,4.50
2019-02-08T22:20:40.078Z,5.27
2019-02-08T22:23:09.062Z,4.73
2019-02-08T22:25:37.801Z,4.83
2019-02-08T22:28:07.304Z,4.57
2019-02-08T22:30:36.341Z,4.90
2019-02-08T22:33:10.386Z,4.53
2019-02-08T22:35:39.208Z,4.93
2019-02-08T22:38:09.045Z,4.07
2019-02-08T22:40:37.987Z,4.77
2019-02-08T22:43:06.980Z,5.30
2019-02-08T22:45:42.837Z,5.13
2019-02-08T22:48:12.774Z,4.83
2019-02-08T22:50:41.256Z,4.87
2019-02-08T22:53:10.067Z,4.63
2019-02-08T22:55:38.729Z,5.33
2019-02-08T22:58:08.821Z,5.10
2019-02-08T23:00:40.835Z,5.55
2019-02-08T23:03:11.034Z,4.53
2019-02-08T23:05:45.416Z,5.13
2019-02-08T23:08:11.116Z,5.20
2019-02-08T23:10:40.349Z,5.03
2019-02-08T23:13:09.684Z,5.50
2019-02-08T23:15:38.506Z,5.07
2019-02-08T23:18:08.838Z,5.10
2019-02-08T23:20:37.650Z,4.83
2019-02-08T23:23:06.951Z,5.57
2019-02-08T23:25:35.431Z,4.77
2019-02-08T23:28:04.360Z,5.30
2019-02-08T23:30:32.834Z,4.70
2019-02-08T23:33:01.292Z,4.67
2019-02-08T23:35:29.777Z,5.20
2019-02-08T23:37:58.247Z,5.00
2019-02-08T23:40:26.735Z,4.93
2019-02-08T23:42:55.200Z,4.70
2019-02-08T23:45:24.208Z,4.33
2019-02-08T23:47:52.657Z,4.93
2019-02-08T23:50:25.405Z,4.63
2019-02-08T23:52:54.604Z,4.10
2019-02-08T23:55:27.325Z,4.80
2019-02-08T23:57:55.856Z,4.90
